createdAt,value
2019-05-11T00:00:35.124Z,10.47
2019-05-11T00:03:04.511Z,10.40
2019-05-11T00:05:35.614Z,10.37
2019-05-11T00:08:05.296Z,10.32
2019-05-11T00:10:44.062Z,10.27
2019-05-11T00:13:13.430Z,10.23
2019-05-11T00:15:44.108Z,10.20
2019-05-11T00:18:13.519Z,10.16
2019-05-11T00:20:43.062Z,10.03
2019-05-11T00:23:12.724Z,10.03
2019-05-11T00:25:42.168Z,10.02
2019-05-11T00:28:11.665Z,9.98
2019-05-11T00:31:50.990Z,9.93
2019-05-11T00:34:20.354Z,9.90
2019-05-11T00:36:50.020Z,9.82
2019-05-11T00:39:19.400Z,9.75
2019-05-11T00:41:54.726Z,9.72
2019-05-11T00:44:24.249Z,9.72
2019-05-11T00:46:53.617Z,9.65
2019-05-11T00:49:23.239Z,9.63
2019-05-11T00:51:54.498Z,9.63
2019-05-11T00:54:24.156Z,9.61
2019-05-11T00:56:53.513Z,9.57
2019-05-11T00:59:23.106Z,9.51
2019-05-11T01:01:54.436Z,9.51
2019-05-11T01:04:24.046Z,9.49
2019-05-11T01:06:53.432Z,9.47
2019-05-11T01:09:23.085Z,9.46
2019-05-11T01:12:32.822Z,9.46
2019-05-11T01:15:02.413Z,9.44
2019-05-11T01:17:32.095Z,9.42
2019-05-11T01:20:01.917Z,9.42
2019-05-11T01:22:31.307Z,9.41
2019-05-11T01:25:00.678Z,9.41
2019-05-11T01:27:30.174Z,9.32
2019-05-11T01:29:59.537Z,9.32
2019-05-11T01:32:29.203Z,9.33
2019-05-11T01:34:58.663Z,9.30
2019-05-11T01:37:29.516Z,9.21
2019-05-11T01:39:59.170Z,9.21
2019-05-11T01:42:28.551Z,9.24
2019-05-11T01:44:58.207Z,9.24
2019-05-11T01:47:27.661Z,9.23
2019-05-11T01:49:57.312Z,9.23
2019-05-11T01:52:26.691Z,9.25
2019-05-11T01:54:56.675Z,9.22
2019-05-11T01:57:26.379Z,9.12
2019-05-11T01:59:56.734Z,9.12
2019-05-11T02:02:27.333Z,9.16
2019-05-11T02:05:14.389Z,9.18
2019-05-11T02:07:43.770Z,9.16
2019-05-11T02:10:13.499Z,9.15
2019-05-11T02:12:42.881Z,9.15
2019-05-11T02:15:12.874Z,9.18
2019-05-11T02:17:42.386Z,9.16
2019-05-11T02:20:12.011Z,9.11
2019-05-11T02:22:41.671Z,9.13
2019-05-11T02:25:11.063Z,9.13
2019-05-11T02:27:41.506Z,9.15
2019-05-11T02:30:11.411Z,9.14
2019-05-11T02:32:40.754Z,9.15
2019-05-11T02:35:10.867Z,9.17
2019-05-11T02:37:40.581Z,9.21
2019-05-11T02:40:10.522Z,9.22
2019-05-11T02:42:40.056Z,9.21
2019-05-11T02:45:09.948Z,9.22
2019-05-11T02:47:39.499Z,9.22
2019-05-11T02:50:09.224Z,9.20
2019-05-11T02:52:38.950Z,9.14
2019-05-11T02:55:10.932Z,9.14
2019-05-11T02:57:40.527Z,9.16
2019-05-11T03:00:10.394Z,9.16
2019-05-11T03:03:04.585Z,9.21
2019-05-11T03:05:34.000Z,9.20
2019-05-11T03:08:03.680Z,9.20
2019-05-11T03:10:33.041Z,9.21
2019-05-11T03:13:02.720Z,9.23
2019-05-11T03:15:32.381Z,9.23
2019-05-11T03:18:01.801Z,9.23
2019-05-11T03:20:33.510Z,9.24
2019-05-11T03:23:02.868Z,9.24
2019-05-11T03:25:32.544Z,9.24
2019-05-11T03:28:01.900Z,9.25
2019-05-11T03:30:32.706Z,9.20
2019-05-11T03:33:02.262Z,9.20
2019-05-11T03:35:31.628Z,9.21
2019-05-11T03:38:00.982Z,9.22
2019-05-11T03:40:30.666Z,9.12
2019-05-11T03:43:00.349Z,9.12
2019-05-11T03:45:29.696Z,9.13
2019-05-11T03:47:59.083Z,9.11
2019-05-11T03:50:28.561Z,9.09
2019-05-11T03:52:58.924Z,9.09
2019-05-11T03:55:28.582Z,9.08
2019-05-11T03:57:57.963Z,9.04
2019-05-11T04:00:27.643Z,8.98
2019-05-11T04:03:21.889Z,8.98
2019-05-11T04:05:51.567Z,9.00
2019-05-11T04:08:20.981Z,9.02
2019-05-11T04:10:50.661Z,9.01
2019-05-11T04:13:20.038Z,9.01
2019-05-11T04:15:49.820Z,9.00
2019-05-11T04:18:19.183Z,9.00
2019-05-11T04:20:48.636Z,9.05
2019-05-11T04:23:18.066Z,9.05
2019-05-11T04:25:48.749Z,9.12
2019-05-11T04:28:18.101Z,9.16
2019-05-11T04:30:47.724Z,9.12
2019-05-11T04:33:17.090Z,9.12
2019-05-11T04:35:46.764Z,9.12
2019-05-11T04:38:16.138Z,9.20
2019-05-11T04:40:45.782Z,9.20
2019-05-11T04:43:15.146Z,9.20
2019-05-11T04:45:45.742Z,9.25
2019-05-11T04:48:15.128Z,9.25
2019-05-11T04:50:44.774Z,9.28
2019-05-11T04:53:14.761Z,9.33
2019-05-11T04:55:44.135Z,9.40
2019-05-11T04:58:13.804Z,9.44
2019-05-11T05:00:43.163Z,9.44
2019-05-11T05:03:12.797Z,9.51
2019-05-11T05:05:42.179Z,9.52
2019-05-11T05:08:11.832Z,9.55
2019-05-11T05:10:52.387Z,9.55
2019-05-11T05:13:23.376Z,9.56
2019-05-11T05:15:53.362Z,9.57
2019-05-11T05:18:22.789Z,9.61
2019-05-11T05:20:53.052Z,9.61
2019-05-11T05:23:22.726Z,9.61
2019-05-11T05:28:34.163Z,9.68
2019-05-11T05:31:09.843Z,9.71
2019-05-11T05:33:39.204Z,9.75
2019-05-11T05:36:09.866Z,9.78
2019-05-11T05:38:39.236Z,9.77
2019-05-11T05:41:09.083Z,9.79
2019-05-11T05:43:38.701Z,9.83
2019-05-11T05:46:09.086Z,9.87
2019-05-11T05:48:38.762Z,9.92
2019-05-11T05:51:09.341Z,10.02
2019-05-11T05:53:38.823Z,10.06
2019-05-11T05:56:08.512Z,10.06
2019-05-11T05:58:37.931Z,10.13
2019-05-11T06:01:10.088Z,10.16
2019-05-11T06:03:38.746Z,10.16
2019-05-11T06:06:08.378Z,10.20
2019-05-11T06:08:37.871Z,10.26
2019-05-11T06:11:07.291Z,10.31
2019-05-11T06:13:45.304Z,10.34
2019-05-11T06:16:08.428Z,10.34
2019-05-11T06:18:37.935Z,10.35
2019-05-11T06:21:08.292Z,10.36
2019-05-11T06:23:38.013Z,10.44
2019-05-11T06:26:07.427Z,10.50
2019-05-11T06:28:37.060Z,10.55
2019-05-11T06:31:06.548Z,10.60
2019-05-11T06:33:35.953Z,10.64
2019-05-11T06:36:05.377Z,10.64
2019-05-11T06:38:34.914Z,10.67
2019-05-11T06:41:04.610Z,10.73
2019-05-11T06:43:34.072Z,10.68
2019-05-11T06:46:03.451Z,10.68
2019-05-11T06:48:32.965Z,10.71
2019-05-11T06:51:08.082Z,10.74
2019-05-11T06:53:37.451Z,10.73
2019-05-11T06:56:07.101Z,10.73
2019-05-11T06:58:36.527Z,10.73
2019-05-11T07:01:06.330Z,10.81
2019-05-11T07:03:36.023Z,10.80
2019-05-11T07:06:05.405Z,10.80
2019-05-11T07:08:34.999Z,10.80
2019-05-11T07:11:04.375Z,10.79
2019-05-11T07:13:34.032Z,10.77
2019-05-11T07:16:04.494Z,10.78
2019-05-11T07:18:34.304Z,10.80
2019-05-11T07:21:03.985Z,10.81
2019-05-11T07:23:33.375Z,10.85
2019-05-11T07:26:03.356Z,10.90
2019-05-11T07:28:33.018Z,10.94
2019-05-11T07:31:02.797Z,10.97
2019-05-11T07:33:32.179Z,10.96
2019-05-11T07:36:01.543Z,10.97
2019-05-11T07:38:32.547Z,10.86
2019-05-11T07:41:02.209Z,10.83
2019-05-11T07:43:31.585Z,10.80
2019-05-11T07:46:01.247Z,10.80
2019-05-11T07:48:30.632Z,10.82
2019-05-11T07:51:00.302Z,10.78
2019-05-11T07:54:03.028Z,10.77
2019-05-11T07:56:32.393Z,10.77
2019-05-11T07:59:01.782Z,10.76
2019-05-11T08:01:31.287Z,10.76
2019-05-11T08:04:00.658Z,10.73
2019-05-11T08:06:30.187Z,10.64
2019-05-11T08:08:59.553Z,10.64
2019-05-11T08:11:31.481Z,10.51
2019-05-11T08:14:00.549Z,10.51
2019-05-11T08:16:30.355Z,10.51
2019-05-11T08:18:59.721Z,10.51
2019-05-11T08:21:29.318Z,10.32
2019-05-11T08:23:59.011Z,10.32
2019-05-11T08:26:28.551Z,10.33
2019-05-11T08:28:58.236Z,10.33
2019-05-11T08:31:28.677Z,10.33
2019-05-11T08:33:58.494Z,10.30
2019-05-11T08:36:28.996Z,10.13
2019-05-11T08:38:58.799Z,10.13
2019-05-11T08:41:28.535Z,10.11
2019-05-11T08:43:58.616Z,10.09
2019-05-11T08:46:28.341Z,10.11
2019-05-11T08:48:59.495Z,10.11
2019-05-11T08:51:28.801Z,10.12
2019-05-11T08:53:59.464Z,10.11
2019-05-11T08:56:29.050Z,10.10
2019-05-11T08:58:58.755Z,10.12
2019-05-11T09:01:28.875Z,10.11
2019-05-11T09:03:58.646Z,10.14
2019-05-11T09:06:29.978Z,10.21
2019-05-11T09:08:59.647Z,10.25
2019-05-11T09:11:29.262Z,10.28
2019-05-11T09:13:58.952Z,10.26
2019-05-11T09:16:29.374Z,10.22
2019-05-11T09:18:58.783Z,10.22
2019-05-11T09:21:31.246Z,10.24
2019-05-11T09:24:00.628Z,10.19
2019-05-11T09:26:30.291Z,10.18
2019-05-11T09:28:59.678Z,10.18
2019-05-11T09:31:29.336Z,10.20
2019-05-11T09:33:58.833Z,10.23
2019-05-11T09:36:28.772Z,10.31
2019-05-11T09:38:59.442Z,10.39
2019-05-11T09:41:29.079Z,10.50
2019-05-11T09:43:58.884Z,10.59
2019-05-11T09:46:28.487Z,10.63
2019-05-11T09:48:59.236Z,10.67
2019-05-11T09:51:28.862Z,10.73
2019-05-11T09:53:58.887Z,10.77
2019-05-11T09:56:28.871Z,10.79
2019-05-11T09:58:58.581Z,10.78
2019-05-11T10:01:29.644Z,10.76
2019-05-11T10:03:59.091Z,10.77
2019-05-11T10:06:28.591Z,10.80
2019-05-11T10:08:58.095Z,10.83
2019-05-11T10:11:28.228Z,10.84
2019-05-11T10:13:57.995Z,10.90
2019-05-11T10:16:28.152Z,10.96
2019-05-11T10:18:59.110Z,11.01
2019-05-11T10:21:29.606Z,11.10
2019-05-11T10:23:58.985Z,11.19
2019-05-11T10:26:28.580Z,11.28
2019-05-11T10:28:58.628Z,11.33
2019-05-11T10:31:29.580Z,11.38
2019-05-11T10:33:59.032Z,11.43
2019-05-11T10:36:28.660Z,11.47
2019-05-11T10:38:58.867Z,11.53
2019-05-11T10:41:30.520Z,11.62
2019-05-11T10:43:59.928Z,11.62
2019-05-11T10:46:29.612Z,11.69
2019-05-11T10:48:59.039Z,11.73
2019-05-11T10:51:29.619Z,11.79
2019-05-11T10:53:59.050Z,11.89
2019-05-11T10:56:28.672Z,11.94
2019-05-11T10:58:59.322Z,12.01
2019-05-11T11:01:28.802Z,12.06
2019-05-11T11:03:58.820Z,12.11
2019-05-11T11:06:28.377Z,12.14
2019-05-11T11:08:58.143Z,12.18
2019-05-11T11:11:27.984Z,12.19
2019-05-11T11:13:58.599Z,12.28
2019-05-11T11:16:36.883Z,12.28
2019-05-11T11:18:59.179Z,12.33
2019-05-11T11:21:28.800Z,12.39
2019-05-11T11:23:58.731Z,12.42
2019-05-11T11:26:28.614Z,12.43
2019-05-11T11:28:59.780Z,12.49
2019-05-11T11:31:29.168Z,12.59
2019-05-11T11:33:58.903Z,12.68
2019-05-11T11:36:28.601Z,12.78
2019-05-11T11:38:58.472Z,12.97
2019-05-11T11:41:30.080Z,12.97
2019-05-11T11:44:00.769Z,13.16
2019-05-11T11:46:30.147Z,13.29
2019-05-11T11:48:59.800Z,13.40
2019-05-11T11:51:29.187Z,13.55
2019-05-11T11:53:58.843Z,13.70
2019-05-11T11:56:28.456Z,13.85
2019-05-11T11:58:58.205Z,13.96
2019-05-11T12:01:29.522Z,13.91
2019-05-11T12:04:00.222Z,13.91
2019-05-11T12:06:29.880Z,13.88
2019-05-11T12:08:59.263Z,13.89
2019-05-11T12:11:30.833Z,13.96
2019-05-11T12:14:01.584Z,14.10
2019-05-11T12:16:30.964Z,14.10
2019-05-11T12:19:00.337Z,14.32
2019-05-11T12:21:31.195Z,14.56
2019-05-11T12:24:00.853Z,14.87
2019-05-11T12:26:30.235Z,15.26
2019-05-11T12:29:00.119Z,15.62
2019-05-11T12:31:32.520Z,15.96
2019-05-11T12:34:00.851Z,16.28
2019-05-11T12:36:32.677Z,16.55
2019-05-11T12:39:02.160Z,16.79
2019-05-11T12:41:34.548Z,16.92
2019-05-11T12:44:04.414Z,16.97
2019-05-11T12:46:36.655Z,17.12
2019-05-11T12:49:07.324Z,17.37
2019-05-11T12:51:38.416Z,17.71
2019-05-11T12:54:08.401Z,18.11
2019-05-11T12:56:38.454Z,18.41
2019-05-11T12:59:08.388Z,18.59
2019-05-11T13:01:38.382Z,18.66
2019-05-11T13:04:08.970Z,18.66
2019-05-11T13:06:38.841Z,18.59
2019-05-11T13:09:08.564Z,18.46
2019-05-11T13:11:38.872Z,18.29
2019-05-11T13:14:08.316Z,18.06
2019-05-11T13:16:38.124Z,17.80
2019-05-11T13:19:08.532Z,17.59
2019-05-11T13:21:38.954Z,17.47
2019-05-11T13:24:08.559Z,17.42
2019-05-11T13:26:38.306Z,17.48
2019-05-11T13:29:08.264Z,17.54
2019-05-11T13:31:40.545Z,17.57
2019-05-11T13:34:10.205Z,17.53
2019-05-11T13:36:39.590Z,17.37
2019-05-11T13:39:09.253Z,17.06
2019-05-11T13:41:47.656Z,16.80
2019-05-11T13:44:18.575Z,16.58
2019-05-11T13:46:48.338Z,16.42
2019-05-11T13:49:18.036Z,16.30
2019-05-11T13:51:48.636Z,16.18
2019-05-11T13:54:18.623Z,16.11
2019-05-11T13:56:48.489Z,16.08
2019-05-11T13:59:18.817Z,16.03
2019-05-11T14:01:48.434Z,16.03
2019-05-11T14:06:49.174Z,16.09
2019-05-11T14:09:18.699Z,16.20
2019-05-11T14:11:50.321Z,16.30
2019-05-11T14:14:19.677Z,16.49
2019-05-11T14:16:49.328Z,16.98
2019-05-11T14:19:20.062Z,17.32
2019-05-11T14:21:49.441Z,17.41
2019-05-11T14:24:20.080Z,17.35
2019-05-11T14:26:49.501Z,17.18
2019-05-11T14:29:19.142Z,16.98
2019-05-11T14:32:00.788Z,16.79
2019-05-11T14:32:21.066Z,16.02
2019-05-11T14:34:30.318Z,16.84
2019-05-11T14:36:59.697Z,17.19
2019-05-11T14:39:29.254Z,17.57
2019-05-11T14:41:58.882Z,17.81
2019-05-11T14:44:28.644Z,17.77
2019-05-11T14:46:59.285Z,17.56
2019-05-11T14:49:28.731Z,17.35
2019-05-11T14:51:58.602Z,17.24
2019-05-11T14:54:28.883Z,17.34
2019-05-11T14:56:59.485Z,17.46
2019-05-11T14:59:29.142Z,17.64
2019-05-11T15:02:01.551Z,17.64
2019-05-11T15:04:31.113Z,17.58
2019-05-11T15:07:00.721Z,17.49
2019-05-11T15:09:30.268Z,17.41
2019-05-11T15:11:59.652Z,17.28
2019-05-11T15:14:29.266Z,17.16
2019-05-11T15:16:58.678Z,17.05
2019-05-11T15:19:28.390Z,17.05
2019-05-11T15:22:02.915Z,17.02
2019-05-11T15:24:32.379Z,17.02
2019-05-11T15:27:02.048Z,16.87
2019-05-11T15:29:31.429Z,16.87
2019-05-11T15:32:08.498Z,16.93
2019-05-11T15:34:38.010Z,17.15
2019-05-11T15:37:09.693Z,17.58
2019-05-11T15:39:39.411Z,17.95
2019-05-11T15:42:14.626Z,18.27
2019-05-11T15:44:39.865Z,18.52
2019-05-11T15:47:09.614Z,18.63
2019-05-11T15:49:39.833Z,18.53
2019-05-11T15:52:09.536Z,18.30
2019-05-11T15:54:38.916Z,17.99
2019-05-11T15:57:08.627Z,17.72
2019-05-11T15:59:38.823Z,17.52
2019-05-11T16:02:08.751Z,17.31
2019-05-11T16:04:41.401Z,17.08
2019-05-11T16:07:09.727Z,16.97
2019-05-11T16:09:39.403Z,17.03
2019-05-11T16:12:08.770Z,17.15
2019-05-11T16:14:38.453Z,17.24
2019-05-11T16:17:08.762Z,17.30
2019-05-11T16:19:41.126Z,17.14
2019-05-11T16:22:10.095Z,17.14
2019-05-11T16:24:40.189Z,17.07
2019-05-11T16:27:10.914Z,17.01
2019-05-11T16:29:40.448Z,17.01
2019-05-11T16:32:10.115Z,16.93
2019-05-11T16:34:45.252Z,16.91
2019-05-11T16:37:14.783Z,16.87
2019-05-11T16:39:46.762Z,16.82
2019-05-11T16:42:15.742Z,16.76
2019-05-11T16:44:45.412Z,16.68
2019-05-11T16:47:14.799Z,16.60
2019-05-11T16:49:45.149Z,16.49
2019-05-11T16:53:05.379Z,16.34
2019-05-11T16:55:34.762Z,16.25
2019-05-11T16:58:04.425Z,16.19
2019-05-11T17:00:43.532Z,16.15
2019-05-11T17:03:12.921Z,16.07
2019-05-11T17:05:42.572Z,15.99
2019-05-11T17:08:11.998Z,15.89
2019-05-11T17:10:43.267Z,15.79
2019-05-11T17:13:12.927Z,15.73
2019-05-11T17:15:42.585Z,15.59
2019-05-11T17:18:11.965Z,15.49
2019-05-11T17:20:41.633Z,15.40
2019-05-11T17:23:11.288Z,15.32
2019-05-11T17:25:42.315Z,15.22
2019-05-11T17:28:11.900Z,15.12
2019-05-11T17:30:44.805Z,14.92
2019-05-11T17:33:14.162Z,14.92
2019-05-11T17:35:43.621Z,14.83
2019-05-11T17:38:14.300Z,14.78
2019-05-11T17:40:43.771Z,14.74
2019-05-11T17:43:13.135Z,14.67
2019-05-11T17:45:42.752Z,14.63
2019-05-11T17:48:12.193Z,14.62
2019-05-11T17:50:41.735Z,14.57
2019-05-11T17:53:11.094Z,14.52
2019-05-11T17:55:40.756Z,14.42
2019-05-11T17:58:10.147Z,14.28
2019-05-11T18:00:39.759Z,14.09
2019-05-11T18:03:11.280Z,13.96
2019-05-11T18:05:41.078Z,13.84
2019-05-11T18:08:11.008Z,13.76
2019-05-11T18:10:40.387Z,13.66
2019-05-11T18:13:10.317Z,13.55
2019-05-11T18:15:39.844Z,13.41
2019-05-11T18:18:09.622Z,13.30
2019-05-11T18:20:43.567Z,13.20
2019-05-11T18:23:13.227Z,13.17
2019-05-11T18:25:42.821Z,13.06
2019-05-11T18:28:14.251Z,13.02
2019-05-11T18:30:43.270Z,12.93
2019-05-11T18:33:12.928Z,12.81
2019-05-11T18:35:42.597Z,12.72
2019-05-11T18:38:12.020Z,12.67
2019-05-11T18:40:41.465Z,12.62
2019-05-11T18:43:11.072Z,12.51
2019-05-11T18:45:40.793Z,12.43
2019-05-11T18:48:10.416Z,12.32
2019-05-11T18:50:39.825Z,12.25
2019-05-11T18:53:09.479Z,12.15
2019-05-11T18:55:38.967Z,12.05
2019-05-11T18:58:08.286Z,12.00
2019-05-11T19:00:38.252Z,11.98
2019-05-11T19:03:08.862Z,11.93
2019-05-11T19:05:38.685Z,11.91
2019-05-11T19:08:08.389Z,11.81
2019-05-11T19:10:38.502Z,11.68
2019-05-11T19:13:08.155Z,11.57
2019-05-11T19:15:38.807Z,11.49
2019-05-11T19:18:08.373Z,11.41
2019-05-11T19:20:50.871Z,11.41
2019-05-11T19:23:21.823Z,11.39
2019-05-11T19:25:51.206Z,11.36
2019-05-11T19:28:20.865Z,11.32
2019-05-11T19:30:50.253Z,11.19
2019-05-11T19:33:19.897Z,11.12
2019-05-11T19:35:49.276Z,11.07
2019-05-11T19:38:19.089Z,10.97
2019-05-11T19:40:48.847Z,10.87
2019-05-11T19:43:18.727Z,10.82
2019-05-11T19:45:48.729Z,10.78
2019-05-11T19:48:18.163Z,10.72
2019-05-11T19:51:02.643Z,10.62
2019-05-11T19:53:18.974Z,10.57
2019-05-11T19:55:48.355Z,10.51
2019-05-11T19:58:19.224Z,10.52
2019-05-11T20:00:49.043Z,10.63
2019-05-11T20:03:18.429Z,10.61
2019-05-11T20:05:48.741Z,10.48
2019-05-11T20:08:18.562Z,10.36
2019-05-11T20:10:49.145Z,10.31
2019-05-11T20:13:18.574Z,10.27
2019-05-11T20:15:48.559Z,10.19
2019-05-11T20:18:18.509Z,10.14
2019-05-11T20:20:48.208Z,10.09
2019-05-11T20:23:54.169Z,10.05
2019-05-11T20:26:23.567Z,10.03
2019-05-11T20:28:53.128Z,10.00
2019-05-11T20:31:22.783Z,9.97
2019-05-11T20:33:52.165Z,9.90
2019-05-11T20:36:21.518Z,9.85
2019-05-11T20:38:51.110Z,9.82
2019-05-11T20:41:20.471Z,9.82
2019-05-11T20:43:50.170Z,9.80
2019-05-11T20:46:20.743Z,9.77
2019-05-11T20:48:50.127Z,9.71
2019-05-11T20:51:50.041Z,9.70
2019-05-11T20:54:20.178Z,9.67
2019-05-11T20:56:49.536Z,9.60
2019-05-11T20:59:19.065Z,9.55
2019-05-11T21:01:48.495Z,9.52
2019-05-11T21:04:19.068Z,9.53
2019-05-11T21:06:48.423Z,9.51
2019-05-11T21:09:18.550Z,9.46
2019-05-11T21:11:48.418Z,9.45
2019-05-11T21:14:18.319Z,9.44
2019-05-11T21:16:48.686Z,9.43
2019-05-11T21:19:18.796Z,9.45
2019-05-11T21:21:53.646Z,9.39
2019-05-11T21:24:21.298Z,9.33
2019-05-11T21:26:50.654Z,9.25
2019-05-11T21:29:21.317Z,9.09
2019-05-11T21:31:54.275Z,9.09
2019-05-11T21:34:23.848Z,9.06
2019-05-11T21:36:53.290Z,9.03
2019-05-11T21:39:22.738Z,8.98
2019-05-11T21:41:58.342Z,8.90
2019-05-11T21:44:28.097Z,8.84
2019-05-11T21:47:12.958Z,8.84
2019-05-11T21:50:10.931Z,9.49
2019-05-11T21:52:41.462Z,9.49
2019-05-11T21:55:11.703Z,9.74
2019-05-11T21:57:41.299Z,9.42
2019-05-11T22:00:11.438Z,9.42
2019-05-11T22:02:44.880Z,9.08
2019-05-11T22:05:14.720Z,9.08
2019-05-11T22:07:44.415Z,8.80
2019-05-11T22:10:17.781Z,8.80
2019-05-11T22:12:49.047Z,8.72
2019-05-11T22:15:18.776Z,8.61
2019-05-11T22:17:48.292Z,8.40
2019-05-11T22:20:18.352Z,8.40
2019-05-11T22:22:48.006Z,8.33
2019-05-11T22:25:18.281Z,8.29
2019-05-11T22:27:48.752Z,8.26
2019-05-11T22:30:18.809Z,8.23
2019-05-11T22:32:48.310Z,8.11
2019-05-11T22:35:18.291Z,8.11
2019-05-11T22:37:48.984Z,8.02
2019-05-11T22:40:18.702Z,7.96
2019-05-11T22:42:48.408Z,7.83
2019-05-11T22:45:18.710Z,7.83
2019-05-11T22:47:48.366Z,7.71
2019-05-11T22:50:18.946Z,7.71
2019-05-11T22:52:48.763Z,7.67
2019-05-11T22:55:19.069Z,7.67
2019-05-11T22:57:48.759Z,7.67
2019-05-11T23:00:21.570Z,7.65
2019-05-11T23:02:51.238Z,7.60
2019-05-11T23:05:20.603Z,7.57
2019-05-11T23:07:50.000Z,7.53
2019-05-11T23:10:19.498Z,7.46
2019-05-11T23:12:48.864Z,7.46
2019-05-11T23:15:19.691Z,7.42
2019-05-11T23:17:49.357Z,7.37
2019-05-11T23:20:18.966Z,7.35
2019-05-11T23:22:58.007Z,7.33
2019-05-11T23:25:19.961Z,7.32
2019-05-11T23:27:49.537Z,7.29
2019-05-11T23:30:19.985Z,7.26
2019-05-11T23:32:49.921Z,7.23
2019-05-11T23:35:19.742Z,7.22
2019-05-11T23:37:50.004Z,7.21
2019-05-11T23:40:19.928Z,7.18
2019-05-11T23:42:49.624Z,7.17
2019-05-11T23:45:19.399Z,7.14
2019-05-11T23:47:49.237Z,7.12
2019-05-11T23:50:19.758Z,7.09
2019-05-11T23:53:05.127Z,7.08
2019-05-11T23:55:20.496Z,7.05
2019-05-11T23:57:49.861Z,7.02
